Etusivu
METAR-TAF:

METAR-TAF

Lentoasemat :

Kelowna, Brittiläinen Kolumbia, Kanada

Leveyspiiri: 49-58N, Pituuspiiri: 119-23W, korkeus merenpinnasta: 430 m

Tämänhetkinen sää

Tämä raportti tehtiin 1 tunti ja 2 minuuttia sitten, kello 08.00 UTC
Tuuli 4 kn eri suunnista
Lämpötila 1°C
Kosteus 80%
Ilmanpaine 1019 hPa
Näkyvyys: 14.5 km
Hajonneita pilviä 10000 ft:n korkeudessa
Pilvistä 12000 ft:n korkeudessa

METAR: CYLW 170800Z AUTO VRB04KT 9SM BKN100 OVC120 01/M02 A3008 RMK SLP203

Aika: 01:02 (09:02 UTC)

Sääennuste

Tämä raportti tehtiin 2 tuntia ja 24 minuuttia sitten, kello 06.38 UTC
Ennuste voimassa 17. päivästä klo 07 UTC - 17. päivään klo 19 UTC
Tuuli 3 kn eri suunnista
Näkyvyys: 10 km
Hajonneita pilviä 9000 ft:n korkeudessa
Ajoittain
17. päivästä klo 07 UTC - 17. päivään klo 19 UTC
Hajanaisia pilviä 9000 ft:n korkeudessa

TAF: CYLW 170638Z 1707/1719 VRB03KT P6SM BKN090 TEMPO 1707/1719 SCT090 RMK FCST BASED ON AUTO OBS. NXT FCST BY 171300Z

Säähavainnot ja -ennusteet yli 4000 lentoasemalta (METAR- ja TAF-raportit).

Käytössä olevat sääasemat on merkitty karttaan keltaisilla ja punaisilla pisteillä.

Aseta hiiri pisteen päälle nähdäksesi sääaseman nimen.

Klikkaa sitten nähdäksesi säähavainnot ja -ennusteet.

Kartan vaihtaminen: klikkaa mustalla rastilla varustettuja vihreitä pisteitä, niin voit zoomata sisään; viivalla varustettua vihreää pistettä, niin voit zoomata ulos tai vihreitä nuolia, niin pääset viereisille kartoille.


METAR-TAF: